Silver Sailing — VRIH8 — position and weather

sailwx.info

Track history (hours):
 
Tides and Currents Weather Stations Pressure Air Temp Water Temp Dewpoint Dewpoint Depression Visibility Wind Speed Wind Dir Waves Ship Positions

Silver Sailing

Last reported at 2017-Oct-14 17:32 UTC. Time now 2017-Oct-18 22:38 UTC.
Position N 01°17' E 103°21'.

Length 110 m; draft 5.2 m.

Type: Cargo ship. MMSI: 477861300.

Date/timePositionNaut miles runAvg speedWind from/ knotsBaromVisibWave heightAir tempDewpointWater temp
2017-Oct-14 17:32N 01°17' E 103°21'312.2
2017-Oct-14 17:19N 01°16' E 103°23'411.8
2017-Oct-14 16:59N 01°14' E 103°26'611.6
2017-Oct-14 16:30N 01°13' E 103°32'510.9
2017-Oct-14 16:00N 01°12' E 103°37'4 8.4
2017-Oct-14 15:30N 01°13' E 103°41'4 8.7
2017-Oct-14 15:00N 01°16' E 103°44'3 5.3
2017-Oct-14 14:28N 01°18' E 103°43'0 0.1
2017-Oct-14 13:58N 01°18' E 103°43'0 0.0
2017-Oct-14 13:25N 01°18' E 103°43'0 0.0
2017-Oct-14 12:58N 01°18' E 103°43'0 0.0
2017-Oct-14 12:25N 01°18' E 103°43'0 0.0
2017-Oct-14 11:52N 01°18' E 103°43'0 0.0
2017-Oct-14 11:25N 01°18' E 103°43'0 0.0
2017-Oct-14 10:55N 01°18' E 103°43'0 0.0
2017-Oct-14 10:16N 01°18' E 103°43'0 0.0
2017-Oct-14 09:58N 01°18' E 103°43'0 0.0
2017-Oct-14 09:28N 01°18' E 103°43'0 0.0
2017-Oct-14 08:58N 01°18' E 103°43'0 0.0
2017-Oct-14 08:28N 01°18' E 103°43'0 0.0
2017-Oct-14 07:55N 01°18' E 103°43'0 0.0
2017-Oct-14 07:28N 01°18' E 103°43'0 0.0
2017-Oct-14 06:58N 01°18' E 103°43'0 0.0
2017-Oct-14 06:28N 01°18' E 103°43'0 0.0
2017-Oct-14 05:58N 01°18' E 103°43'0 0.0
2017-Oct-14 05:28N 01°18' E 103°43'0 0.0
2017-Oct-14 04:58N 01°18' E 103°43'0 0.0
2017-Oct-14 04:28N 01°18' E 103°43'0 0.0
2017-Oct-14 03:58N 01°18' E 103°43'0 0.0
2017-Oct-14 03:28N 01°18' E 103°43'0 0.0
2017-Oct-14 02:58N 01°18' E 103°43'0 0.0
2017-Oct-14 02:25N 01°18' E 103°43'0 0.0
2017-Oct-14 01:55N 01°18' E 103°43'0 0.0
2017-Oct-14 01:28N 01°18' E 103°43'0 0.0
2017-Oct-14 00:58N 01°18' E 103°43'0 0.0
2017-Oct-14 00:28N 01°18' E 103°43'0 0.0
2017-Oct-13 23:58N 01°18' E 103°43'0 0.0
2017-Oct-13 23:28N 01°18' E 103°43'0 0.0
2017-Oct-13 22:58N 01°18' E 103°43'0 0.0
2017-Oct-13 22:28N 01°18' E 103°43'0 0.0
2017-Oct-13 21:55N 01°18' E 103°43'0 0.0
2017-Oct-13 21:25N 01°18' E 103°43'0 0.0
2017-Oct-13 20:58N 01°18' E 103°43'0 0.0
2017-Oct-13 20:28N 01°18' E 103°43'0 0.0
2017-Oct-13 19:58N 01°18' E 103°43'0 0.0
2017-Oct-13 19:28N 01°18' E 103°43'0 0.0
2017-Oct-13 18:55N 01°18' E 103°43'0 0.0
2017-Oct-13 18:25N 01°18' E 103°43'0 0.0
2017-Oct-13 17:58N 01°18' E 103°43'0 0.0
2017-Oct-13 17:28N 01°18' E 103°43'0 0.0
2017-Oct-13 16:58N 01°18' E 103°43'0 0.0
2017-Oct-13 16:28N 01°18' E 103°43'0 0.0
2017-Oct-13 15:55N 01°18' E 103°43'0 0.0
2017-Oct-13 15:28N 01°18' E 103°43'1928.9
2017-Oct-13 14:48N 01°16' E 104°02'1933.6
2017-Oct-13 14:13N 01°18' E 103°43'0 0.0
2017-Oct-13 13:58N 01°18' E 103°43'0 0.0
2017-Oct-13 13:28N 01°18' E 103°43'0 0.0
2017-Oct-13 12:58N 01°18' E 103°43'0 0.0
2017-Oct-13 12:28N 01°18' E 103°43'0 0.0
2017-Oct-13 11:55N 01°18' E 103°43'0 0.0
2017-Oct-13 11:28N 01°18' E 103°43'0 0.0
2017-Oct-13 10:58N 01°18' E 103°43'0 0.0
2017-Oct-13 10:28N 01°18' E 103°43'0 0.0
2017-Oct-13 09:58N 01°18' E 103°43'0 0.0
2017-Oct-13 09:28N 01°18' E 103°43'0 0.0
2017-Oct-13 08:55N 01°18' E 103°43'0 0.0
2017-Oct-13 08:28N 01°18' E 103°43'0 0.0
2017-Oct-13 07:58N 01°18' E 103°43'0 0.0
2017-Oct-13 07:28N 01°18' E 103°43'0 0.0
2017-Oct-13 06:59N 01°18' E 103°43'1 1.8
2017-Oct-13 06:31N 01°18' E 103°44'4 8.2
2017-Oct-13 06:01N 01°15' E 103°47'510.1
2017-Oct-13 05:31N 01°13' E 103°51'3 6.1
2017-Oct-13 05:00N 01°14' E 103°54'1 2.5
2017-Oct-13 04:30N 01°14' E 103°55'2 3.4
2017-Oct-13 03:57N 01°15' E 103°57'  
Track history (hours):
 
Tides and Currents Weather Stations Pressure Air Temp Water Temp Dewpoint Dewpoint Depression Visibility Wind Speed Wind Dir Waves Ship Positions

Silver Sailing

Last reported at 2017-Oct-14 17:32 UTC. Time now 2017-Oct-18 22:38 UTC.
Position N 01°17' E 103°21'.

Length 110 m; draft 5.2 m.

Type: Cargo ship. MMSI: 477861300.

Date/timePositionNaut miles runAvg speedWind from/ knotsBaromVisibWave heightAir tempDewpointWater temp
2017-Oct-14 17:32N 01°17' E 103°21'312.2
2017-Oct-14 17:19N 01°16' E 103°23'411.8
2017-Oct-14 16:59N 01°14' E 103°26'611.6
2017-Oct-14 16:30N 01°13' E 103°32'510.9
2017-Oct-14 16:00N 01°12' E 103°37'4 8.4
2017-Oct-14 15:30N 01°13' E 103°41'4 8.7
2017-Oct-14 15:00N 01°16' E 103°44'3 5.3
2017-Oct-14 14:28N 01°18' E 103°43'0 0.1
2017-Oct-14 13:58N 01°18' E 103°43'0 0.0
2017-Oct-14 13:25N 01°18' E 103°43'0 0.0
2017-Oct-14 12:58N 01°18' E 103°43'0 0.0
2017-Oct-14 12:25N 01°18' E 103°43'0 0.0
2017-Oct-14 11:52N 01°18' E 103°43'0 0.0
2017-Oct-14 11:25N 01°18' E 103°43'0 0.0
2017-Oct-14 10:55N 01°18' E 103°43'0 0.0
2017-Oct-14 10:16N 01°18' E 103°43'0 0.0
2017-Oct-14 09:58N 01°18' E 103°43'0 0.0
2017-Oct-14 09:28N 01°18' E 103°43'0 0.0
2017-Oct-14 08:58N 01°18' E 103°43'0 0.0
2017-Oct-14 08:28N 01°18' E 103°43'0 0.0
2017-Oct-14 07:55N 01°18' E 103°43'0 0.0
2017-Oct-14 07:28N 01°18' E 103°43'0 0.0
2017-Oct-14 06:58N 01°18' E 103°43'0 0.0
2017-Oct-14 06:28N 01°18' E 103°43'0 0.0
2017-Oct-14 05:58N 01°18' E 103°43'0 0.0
2017-Oct-14 05:28N 01°18' E 103°43'0 0.0
2017-Oct-14 04:58N 01°18' E 103°43'0 0.0
2017-Oct-14 04:28N 01°18' E 103°43'0 0.0
2017-Oct-14 03:58N 01°18' E 103°43'0 0.0
2017-Oct-14 03:28N 01°18' E 103°43'0 0.0
2017-Oct-14 02:58N 01°18' E 103°43'0 0.0
2017-Oct-14 02:25N 01°18' E 103°43'0 0.0
2017-Oct-14 01:55N 01°18' E 103°43'0 0.0
2017-Oct-14 01:28N 01°18' E 103°43'0 0.0
2017-Oct-14 00:58N 01°18' E 103°43'0 0.0
2017-Oct-14 00:28N 01°18' E 103°43'0 0.0
2017-Oct-13 23:58N 01°18' E 103°43'0 0.0
2017-Oct-13 23:28N 01°18' E 103°43'0 0.0
2017-Oct-13 22:58N 01°18' E 103°43'0 0.0
2017-Oct-13 22:28N 01°18' E 103°43'0 0.0
2017-Oct-13 21:55N 01°18' E 103°43'0 0.0
2017-Oct-13 21:25N 01°18' E 103°43'0 0.0
2017-Oct-13 20:58N 01°18' E 103°43'0 0.0
2017-Oct-13 20:28N 01°18' E 103°43'0 0.0
2017-Oct-13 19:58N 01°18' E 103°43'0 0.0
2017-Oct-13 19:28N 01°18' E 103°43'0 0.0
2017-Oct-13 18:55N 01°18' E 103°43'0 0.0
2017-Oct-13 18:25N 01°18' E 103°43'0 0.0
2017-Oct-13 17:58N 01°18' E 103°43'0 0.0
2017-Oct-13 17:28N 01°18' E 103°43'0 0.0
2017-Oct-13 16:58N 01°18' E 103°43'0 0.0
2017-Oct-13 16:28N 01°18' E 103°43'0 0.0
2017-Oct-13 15:55N 01°18' E 103°43'0 0.0
2017-Oct-13 15:28N 01°18' E 103°43'1928.9
2017-Oct-13 14:48N 01°16' E 104°02'1933.6
2017-Oct-13 14:13N 01°18' E 103°43'0 0.0
2017-Oct-13 13:58N 01°18' E 103°43'0 0.0
2017-Oct-13 13:28N 01°18' E 103°43'0 0.0
2017-Oct-13 12:58N 01°18' E 103°43'0 0.0
2017-Oct-13 12:28N 01°18' E 103°43'0 0.0
2017-Oct-13 11:55N 01°18' E 103°43'0 0.0
2017-Oct-13 11:28N 01°18' E 103°43'0 0.0
2017-Oct-13 10:58N 01°18' E 103°43'0 0.0
2017-Oct-13 10:28N 01°18' E 103°43'0 0.0
2017-Oct-13 09:58N 01°18' E 103°43'0 0.0
2017-Oct-13 09:28N 01°18' E 103°43'0 0.0
2017-Oct-13 08:55N 01°18' E 103°43'0 0.0
2017-Oct-13 08:28N 01°18' E 103°43'0 0.0
2017-Oct-13 07:58N 01°18' E 103°43'0 0.0
2017-Oct-13 07:28N 01°18' E 103°43'0 0.0
2017-Oct-13 06:59N 01°18' E 103°43'1 1.8
2017-Oct-13 06:31N 01°18' E 103°44'4 8.2
2017-Oct-13 06:01N 01°15' E 103°47'510.1
2017-Oct-13 05:31N 01°13' E 103°51'3 6.1
2017-Oct-13 05:00N 01°14' E 103°54'1 2.5
2017-Oct-13 04:30N 01°14' E 103°55'2 3.4
2017-Oct-13 03:57N 01°15' E 103°57'  

Dump ship's entire track history